Ardoch, North Dakota
Current Conditions -  °F | °C
As of 3:58 AM on Friday 19 Dec 2014 (Local Time) from KRDR Reporting Station
Overcast Overcast  
Wind Chill: 11°   Ceiling: 500
Heat Index: 21°   Visibility: 7mi
Dew Point: 21°   Wind: 9mph
Humidity: 99%   Direction: 160°SSE
Pressure: 30.09"   Gusts: NA
Location:  48.21°N, 97.34°W
Report Text: KRDR 190958Z AUTO 16008KT 7SM R17/5500FT OVC005 M06/M06 A3009 RMK AO2 SLP212 T10601061
Loading
Personal Weather Stations






























Interactive Weather Map New forecast layout! Learn more

10-Day Weather Forecast

Advertisements
Track Severe Weather on mobile